sensor_id;sensor_type;location;lat;lon;timestamp;P1;durP1;ratioP1;P2;durP2;ratioP2
76964;SDS011;65903;51.452;7.198;2023-07-28T00:00:45;5.60;;;3.65;;
76964;SDS011;65903;51.452;7.198;2023-07-28T00:01:45;7.47;;;4.18;;
76964;SDS011;65903;51.452;7.198;2023-07-28T00:02:46;4.88;;;3.10;;
76964;SDS011;65903;51.452;7.198;2023-07-28T00:03:47;4.95;;;3.30;;
76964;SDS011;65903;51.452;7.198;2023-07-28T00:04:48;5.50;;;3.95;;
76964;SDS011;65903;51.452;7.198;2023-07-28T00:05:49;6.20;;;3.72;;
76964;SDS011;65903;51.452;7.198;2023-07-28T00:06:50;5.13;;;3.80;;
76964;SDS011;65903;51.452;7.198;2023-07-28T00:07:51;6.38;;;3.70;;
76964;SDS011;65903;51.452;7.198;2023-07-28T00:08:52;5.53;;;3.83;;
76964;SDS011;65903;51.452;7.198;2023-07-28T00:09:54;6.20;;;3.53;;
76964;SDS011;65903;51.452;7.198;2023-07-28T00:10:55;7.18;;;3.78;;
76964;SDS011;65903;51.452;7.198;2023-07-28T00:11:56;6.32;;;4.18;;
76964;SDS011;65903;51.452;7.198;2023-07-28T00:12:58;5.22;;;3.47;;
76964;SDS011;65903;51.452;7.198;2023-07-28T00:13:59;8.20;;;4.20;;
76964;SDS011;65903;51.452;7.198;2023-07-28T00:15:00;7.00;;;3.92;;
76964;SDS011;65903;51.452;7.198;2023-07-28T00:16:01;7.07;;;3.70;;
76964;SDS011;65903;51.452;7.198;2023-07-28T00:17:02;6.13;;;4.45;;
76964;SDS011;65903;51.452;7.198;2023-07-28T00:18:02;5.38;;;3.50;;
76964;SDS011;65903;51.452;7.198;2023-07-28T00:19:04;5.13;;;3.63;;
76964;SDS011;65903;51.452;7.198;2023-07-28T00:20:05;5.45;;;3.55;;
76964;SDS011;65903;51.452;7.198;2023-07-28T00:21:06;5.10;;;3.53;;
76964;SDS011;65903;51.452;7.198;2023-07-28T00:22:07;6.00;;;3.60;;
76964;SDS011;65903;51.452;7.198;2023-07-28T00:23:08;5.70;;;3.63;;
76964;SDS011;65903;51.452;7.198;2023-07-28T00:24:09;5.60;;;3.20;;
76964;SDS011;65903;51.452;7.198;2023-07-28T00:25:10;5.95;;;3.38;;
76964;SDS011;65903;51.452;7.198;2023-07-28T00:26:11;8.23;;;3.63;;
76964;SDS011;65903;51.452;7.198;2023-07-28T00:27:11;5.78;;;3.38;;
76964;SDS011;65903;51.452;7.198;2023-07-28T00:28:14;6.07;;;3.70;;
76964;SDS011;65903;51.452;7.198;2023-07-28T00:29:15;5.00;;;3.40;;
76964;SDS011;65903;51.452;7.198;2023-07-28T00:30:15;5.78;;;3.08;;
76964;SDS011;65903;51.452;7.198;2023-07-28T00:31:17;6.55;;;3.40;;
76964;SDS011;65903;51.452;7.198;2023-07-28T00:32:17;5.82;;;3.85;;
76964;SDS011;65903;51.452;7.198;2023-07-28T00:33:18;5.90;;;3.47;;
76964;SDS011;65903;51.452;7.198;2023-07-28T00:34:18;5.70;;;3.42;;
76964;SDS011;65903;51.452;7.198;2023-07-28T00:35:19;4.93;;;3.10;;
76964;SDS011;65903;51.452;7.198;2023-07-28T00:36:20;6.38;;;3.45;;
76964;SDS011;65903;51.452;7.198;2023-07-28T00:37:20;6.20;;;3.50;;
76964;SDS011;65903;51.452;7.198;2023-07-28T00:38:21;4.28;;;3.28;;
76964;SDS011;65903;51.452;7.198;2023-07-28T00:39:22;5.15;;;2.80;;
76964;SDS011;65903;51.452;7.198;2023-07-28T00:40:23;4.93;;;3.42;;
76964;SDS011;65903;51.452;7.198;2023-07-28T00:41:27;4.65;;;3.50;;
76964;SDS011;65903;51.452;7.198;2023-07-28T00:42:28;5.60;;;3.22;;
76964;SDS011;65903;51.452;7.198;2023-07-28T00:43:28;5.90;;;3.47;;
76964;SDS011;65903;51.452;7.198;2023-07-28T00:44:29;5.28;;;3.17;;
76964;SDS011;65903;51.452;7.198;2023-07-28T00:45:29;5.43;;;3.10;;
76964;SDS011;65903;51.452;7.198;2023-07-28T00:46:31;4.75;;;2.97;;
76964;SDS011;65903;51.452;7.198;2023-07-28T00:47:32;6.95;;;3.10;;
76964;SDS011;65903;51.452;7.198;2023-07-28T00:48:33;5.15;;;3.20;;
76964;SDS011;65903;51.452;7.198;2023-07-28T00:49:34;6.75;;;3.22;;
76964;SDS011;65903;51.452;7.198;2023-07-28T00:50:35;5.25;;;3.10;;
76964;SDS011;65903;51.452;7.198;2023-07-28T00:51:35;5.00;;;3.10;;
76964;SDS011;65903;51.452;7.198;2023-07-28T00:52:37;4.97;;;3.38;;
76964;SDS011;65903;51.452;7.198;2023-07-28T00:53:38;4.60;;;3.00;;
76964;SDS011;65903;51.452;7.198;2023-07-28T00:54:39;5.07;;;3.13;;
76964;SDS011;65903;51.452;7.198;2023-07-28T00:55:40;4.38;;;3.00;;
76964;SDS011;65903;51.452;7.198;2023-07-28T00:56:41;4.88;;;3.10;;
76964;SDS011;65903;51.452;7.198;2023-07-28T00:57:42;4.00;;;3.55;;
76964;SDS011;65903;51.452;7.198;2023-07-28T00:58:43;4.97;;;2.75;;
76964;SDS011;65903;51.452;7.198;2023-07-28T00:59:44;6.28;;;3.10;;
76964;SDS011;65903;51.452;7.198;2023-07-28T01:00:46;5.13;;;2.60;;
76964;SDS011;65903;51.452;7.198;2023-07-28T01:01:47;4.55;;;3.00;;
76964;SDS011;65903;51.452;7.198;2023-07-28T01:02:48;4.70;;;2.80;;
76964;SDS011;65903;51.452;7.198;2023-07-28T01:03:50;5.38;;;2.80;;
76964;SDS011;65903;51.452;7.198;2023-07-28T01:04:51;5.38;;;2.97;;
76964;SDS011;65903;51.452;7.198;2023-07-28T01:05:57;5.32;;;2.80;;
76964;SDS011;65903;51.452;7.198;2023-07-28T01:07:52;4.88;;;3.00;;
76964;SDS011;65903;51.452;7.198;2023-07-28T01:09:52;4.68;;;2.75;;
76964;SDS011;65903;51.452;7.198;2023-07-28T01:11:03;5.22;;;3.10;;
76964;SDS011;65903;51.452;7.198;2023-07-28T01:12:07;3.40;;;2.53;;
76964;SDS011;65903;51.452;7.198;2023-07-28T01:13:08;4.20;;;2.78;;
76964;SDS011;65903;51.452;7.198;2023-07-28T01:14:09;4.13;;;3.10;;
76964;SDS011;65903;51.452;7.198;2023-07-28T01:15:10;4.68;;;2.80;;
76964;SDS011;65903;51.452;7.198;2023-07-28T01:16:11;3.97;;;2.80;;
76964;SDS011;65903;51.452;7.198;2023-07-28T01:17:13;4.40;;;2.63;;
76964;SDS011;65903;51.452;7.198;2023-07-28T01:18:14;5.25;;;2.97;;
76964;SDS011;65903;51.452;7.198;2023-07-28T01:19:19;4.43;;;2.60;;
76964;SDS011;65903;51.452;7.198;2023-07-28T01:20:22;4.38;;;3.08;;
76964;SDS011;65903;51.452;7.198;2023-07-28T01:21:28;6.10;;;2.78;;
76964;SDS011;65903;51.452;7.198;2023-07-28T01:24:14;3.55;;;2.58;;
76964;SDS011;65903;51.452;7.198;2023-07-28T01:26:48;4.35;;;2.80;;
76964;SDS011;65903;51.452;7.198;2023-07-28T01:27:50;5.50;;;3.22;;
76964;SDS011;65903;51.452;7.198;2023-07-28T01:28:52;5.05;;;3.38;;
76964;SDS011;65903;51.452;7.198;2023-07-28T01:29:53;5.22;;;3.42;;
76964;SDS011;65903;51.452;7.198;2023-07-28T01:30:54;4.97;;;3.25;;
76964;SDS011;65903;51.452;7.198;2023-07-28T01:31:56;5.78;;;3.88;;
76964;SDS011;65903;51.452;7.198;2023-07-28T01:32:59;5.72;;;3.55;;
76964;SDS011;65903;51.452;7.198;2023-07-28T01:34:00;4.70;;;2.92;;
76964;SDS011;65903;51.452;7.198;2023-07-28T01:35:04;5.38;;;3.60;;
76964;SDS011;65903;51.452;7.198;2023-07-28T01:36:05;5.15;;;3.80;;
76964;SDS011;65903;51.452;7.198;2023-07-28T01:37:06;5.95;;;3.70;;
76964;SDS011;65903;51.452;7.198;2023-07-28T01:38:07;7.88;;;3.78;;
76964;SDS011;65903;51.452;7.198;2023-07-28T01:39:07;4.70;;;3.60;;
76964;SDS011;65903;51.452;7.198;2023-07-28T01:40:08;5.30;;;3.35;;
76964;SDS011;65903;51.452;7.198;2023-07-28T01:41:09;4.93;;;3.50;;
76964;SDS011;65903;51.452;7.198;2023-07-28T01:42:10;7.13;;;3.42;;
76964;SDS011;65903;51.452;7.198;2023-07-28T01:43:11;6.60;;;3.50;;
76964;SDS011;65903;51.452;7.198;2023-07-28T01:44:11;4.68;;;3.30;;
76964;SDS011;65903;51.452;7.198;2023-07-28T01:45:12;6.03;;;3.72;;
76964;SDS011;65903;51.452;7.198;2023-07-28T01:46:13;4.25;;;2.92;;
76964;SDS011;65903;51.452;7.198;2023-07-28T01:47:14;6.28;;;3.85;;
76964;SDS011;65903;51.452;7.198;2023-07-28T01:48:15;5.45;;;3.60;;
76964;SDS011;65903;51.452;7.198;2023-07-28T01:49:16;5.72;;;3.85;;
76964;SDS011;65903;51.452;7.198;2023-07-28T01:50:17;6.20;;;3.50;;
76964;SDS011;65903;51.452;7.198;2023-07-28T01:51:17;5.65;;;3.58;;
76964;SDS011;65903;51.452;7.198;2023-07-28T01:52:18;5.28;;;3.28;;
76964;SDS011;65903;51.452;7.198;2023-07-28T01:53:18;5.25;;;3.08;;
76964;SDS011;65903;51.452;7.198;2023-07-28T01:54:19;4.70;;;2.92;;
76964;SDS011;65903;51.452;7.198;2023-07-28T01:55:20;6.40;;;3.60;;
76964;SDS011;65903;51.452;7.198;2023-07-28T01:56:21;9.57;;;4.25;;
76964;SDS011;65903;51.452;7.198;2023-07-28T01:57:21;5.18;;;3.60;;
76964;SDS011;65903;51.452;7.198;2023-07-28T01:59:25;5.07;;;3.35;;
76964;SDS011;65903;51.452;7.198;2023-07-28T02:00:26;7.18;;;3.05;;
76964;SDS011;65903;51.452;7.198;2023-07-28T02:01:27;4.88;;;3.10;;
76964;SDS011;65903;51.452;7.198;2023-07-28T02:02:28;4.75;;;3.10;;
76964;SDS011;65903;51.452;7.198;2023-07-28T02:03:29;6.50;;;3.53;;
76964;SDS011;65903;51.452;7.198;2023-07-28T02:04:30;4.80;;;3.53;;
76964;SDS011;65903;51.452;7.198;2023-07-28T02:05:30;5.53;;;3.17;;
76964;SDS011;65903;51.452;7.198;2023-07-28T02:06:31;6.25;;;3.13;;
76964;SDS011;65903;51.452;7.198;2023-07-28T02:07:32;5.38;;;3.00;;
76964;SDS011;65903;51.452;7.198;2023-07-28T02:08:33;4.72;;;3.40;;
76964;SDS011;65903;51.452;7.198;2023-07-28T02:09:34;4.75;;;3.10;;
76964;SDS011;65903;51.452;7.198;2023-07-28T02:10:35;4.65;;;3.47;;
76964;SDS011;65903;51.452;7.198;2023-07-28T02:11:36;4.97;;;3.30;;
76964;SDS011;65903;51.452;7.198;2023-07-28T02:12:37;4.93;;;2.80;;
76964;SDS011;65903;51.452;7.198;2023-07-28T02:13:38;4.90;;;3.15;;
76964;SDS011;65903;51.452;7.198;2023-07-28T02:14:39;5.07;;;3.13;;
76964;SDS011;65903;51.452;7.198;2023-07-28T02:15:39;5.32;;;3.58;;
76964;SDS011;65903;51.452;7.198;2023-07-28T02:16:40;5.15;;;3.50;;
76964;SDS011;65903;51.452;7.198;2023-07-28T02:17:41;5.35;;;3.17;;
76964;SDS011;65903;51.452;7.198;2023-07-28T02:18:41;5.93;;;2.90;;
76964;SDS011;65903;51.452;7.198;2023-07-28T02:19:42;3.95;;;3.08;;
76964;SDS011;65903;51.452;7.198;2023-07-28T02:20:43;3.63;;;2.80;;
76964;SDS011;65903;51.452;7.198;2023-07-28T02:21:44;4.97;;;3.00;;
76964;SDS011;65903;51.452;7.198;2023-07-28T02:22:45;3.58;;;2.65;;
76964;SDS011;65903;51.452;7.198;2023-07-28T02:23:45;4.30;;;2.90;;
76964;SDS011;65903;51.452;7.198;2023-07-28T02:24:46;4.53;;;3.22;;
76964;SDS011;65903;51.452;7.198;2023-07-28T02:25:46;6.03;;;3.05;;
76964;SDS011;65903;51.452;7.198;2023-07-28T02:26:47;3.80;;;2.50;;
76964;SDS011;65903;51.452;7.198;2023-07-28T02:27:48;4.80;;;2.83;;
76964;SDS011;65903;51.452;7.198;2023-07-28T02:28:48;4.80;;;2.65;;
76964;SDS011;65903;51.452;7.198;2023-07-28T02:29:50;3.97;;;2.75;;
76964;SDS011;65903;51.452;7.198;2023-07-28T02:30:50;3.72;;;2.88;;
76964;SDS011;65903;51.452;7.198;2023-07-28T02:31:51;3.50;;;2.70;;
76964;SDS011;65903;51.452;7.198;2023-07-28T02:32:54;3.85;;;2.60;;
76964;SDS011;65903;51.452;7.198;2023-07-28T02:33:54;4.78;;;2.60;;
76964;SDS011;65903;51.452;7.198;2023-07-28T02:34:55;4.38;;;2.60;;
76964;SDS011;65903;51.452;7.198;2023-07-28T02:35:56;3.80;;;2.70;;
76964;SDS011;65903;51.452;7.198;2023-07-28T02:36:57;3.60;;;3.00;;
76964;SDS011;65903;51.452;7.198;2023-07-28T02:37:58;4.63;;;2.85;;
76964;SDS011;65903;51.452;7.198;2023-07-28T02:38:58;4.00;;;3.03;;
76964;SDS011;65903;51.452;7.198;2023-07-28T02:39:58;3.97;;;2.90;;
76964;SDS011;65903;51.452;7.198;2023-07-28T02:40:59;4.07;;;2.90;;
76964;SDS011;65903;51.452;7.198;2023-07-28T02:42:00;4.28;;;2.55;;
76964;SDS011;65903;51.452;7.198;2023-07-28T02:43:01;4.72;;;3.13;;
76964;SDS011;65903;51.452;7.198;2023-07-28T02:44:01;4.75;;;2.97;;
76964;SDS011;65903;51.452;7.198;2023-07-28T02:45:02;3.83;;;2.80;;
76964;SDS011;65903;51.452;7.198;2023-07-28T02:46:03;3.95;;;2.70;;
76964;SDS011;65903;51.452;7.198;2023-07-28T02:47:05;5.30;;;3.63;;
76964;SDS011;65903;51.452;7.198;2023-07-28T02:48:06;3.90;;;2.80;;
76964;SDS011;65903;51.452;7.198;2023-07-28T02:49:06;3.47;;;2.85;;
76964;SDS011;65903;51.452;7.198;2023-07-28T02:50:07;4.75;;;2.92;;
76964;SDS011;65903;51.452;7.198;2023-07-28T02:51:09;5.07;;;2.70;;
76964;SDS011;65903;51.452;7.198;2023-07-28T02:52:10;4.35;;;2.67;;
76964;SDS011;65903;51.452;7.198;2023-07-28T02:53:11;4.47;;;2.80;;
76964;SDS011;65903;51.452;7.198;2023-07-28T02:54:12;4.50;;;3.30;;
76964;SDS011;65903;51.452;7.198;2023-07-28T02:55:12;5.00;;;2.58;;
76964;SDS011;65903;51.452;7.198;2023-07-28T02:56:13;3.65;;;2.72;;
76964;SDS011;65903;51.452;7.198;2023-07-28T02:57:14;4.05;;;2.63;;
76964;SDS011;65903;51.452;7.198;2023-07-28T02:58:15;4.53;;;2.67;;
76964;SDS011;65903;51.452;7.198;2023-07-28T02:59:16;3.20;;;2.50;;
76964;SDS011;65903;51.452;7.198;2023-07-28T03:00:20;3.90;;;2.80;;
76964;SDS011;65903;51.452;7.198;2023-07-28T03:01:21;4.00;;;2.80;;
76964;SDS011;65903;51.452;7.198;2023-07-28T03:02:22;3.60;;;2.63;;
76964;SDS011;65903;51.452;7.198;2023-07-28T03:03:23;5.28;;;3.10;;
76964;SDS011;65903;51.452;7.198;2023-07-28T03:04:24;5.25;;;3.13;;
76964;SDS011;65903;51.452;7.198;2023-07-28T03:05:25;3.75;;;2.65;;
76964;SDS011;65903;51.452;7.198;2023-07-28T03:06:26;3.22;;;2.42;;
76964;SDS011;65903;51.452;7.198;2023-07-28T03:07:27;3.63;;;2.60;;
76964;SDS011;65903;51.452;7.198;2023-07-28T03:08:28;3.92;;;2.83;;
76964;SDS011;65903;51.452;7.198;2023-07-28T03:09:29;3.85;;;2.70;;
76964;SDS011;65903;51.452;7.198;2023-07-28T03:10:30;4.13;;;2.90;;
76964;SDS011;65903;51.452;7.198;2023-07-28T03:11:31;4.88;;;2.80;;
76964;SDS011;65903;51.452;7.198;2023-07-28T03:12:32;4.43;;;2.70;;
76964;SDS011;65903;51.452;7.198;2023-07-28T03:13:33;4.90;;;2.50;;
76964;SDS011;65903;51.452;7.198;2023-07-28T03:14:34;4.18;;;2.97;;
76964;SDS011;65903;51.452;7.198;2023-07-28T03:15:35;4.85;;;2.90;;
76964;SDS011;65903;51.452;7.198;2023-07-28T03:16:36;4.68;;;2.80;;
76964;SDS011;65903;51.452;7.198;2023-07-28T03:17:38;4.82;;;2.50;;
76964;SDS011;65903;51.452;7.198;2023-07-28T03:18:39;3.75;;;2.63;;
76964;SDS011;65903;51.452;7.198;2023-07-28T03:19:40;5.22;;;2.50;;
76964;SDS011;65903;51.452;7.198;2023-07-28T03:20:40;3.97;;;2.67;;
76964;SDS011;65903;51.452;7.198;2023-07-28T03:21:41;4.65;;;2.55;;
76964;SDS011;65903;51.452;7.198;2023-07-28T03:22:42;4.38;;;2.47;;
76964;SDS011;65903;51.452;7.198;2023-07-28T03:23:43;3.42;;;2.40;;
76964;SDS011;65903;51.452;7.198;2023-07-28T03:24:44;3.85;;;2.70;;
76964;SDS011;65903;51.452;7.198;2023-07-28T03:25:46;3.55;;;2.10;;
76964;SDS011;65903;51.452;7.198;2023-07-28T03:26:47;3.38;;;2.17;;
76964;SDS011;65903;51.452;7.198;2023-07-28T03:27:48;3.60;;;2.33;;
76964;SDS011;65903;51.452;7.198;2023-07-28T03:28:49;3.25;;;2.03;;
76964;SDS011;65903;51.452;7.198;2023-07-28T03:29:50;3.10;;;2.00;;
76964;SDS011;65903;51.452;7.198;2023-07-28T03:30:51;3.92;;;2.40;;
76964;SDS011;65903;51.452;7.198;2023-07-28T03:31:52;2.97;;;2.20;;
76964;SDS011;65903;51.452;7.198;2023-07-28T03:32:53;3.55;;;2.30;;
76964;SDS011;65903;51.452;7.198;2023-07-28T03:33:53;3.15;;;2.13;;
76964;SDS011;65903;51.452;7.198;2023-07-28T03:34:54;3.38;;;2.40;;
76964;SDS011;65903;51.452;7.198;2023-07-28T03:35:55;3.88;;;2.15;;
76964;SDS011;65903;51.452;7.198;2023-07-28T03:36:56;2.88;;;2.20;;
76964;SDS011;65903;51.452;7.198;2023-07-28T03:37:57;2.67;;;2.03;;
76964;SDS011;65903;51.452;7.198;2023-07-28T03:38:58;3.60;;;2.10;;
76964;SDS011;65903;51.452;7.198;2023-07-28T03:39:58;3.13;;;2.20;;
76964;SDS011;65903;51.452;7.198;2023-07-28T03:41:00;2.83;;;2.10;;
76964;SDS011;65903;51.452;7.198;2023-07-28T03:42:00;3.05;;;2.20;;
76964;SDS011;65903;51.452;7.198;2023-07-28T03:43:01;4.35;;;2.30;;
76964;SDS011;65903;51.452;7.198;2023-07-28T03:44:02;3.10;;;2.28;;
76964;SDS011;65903;51.452;7.198;2023-07-28T03:45:03;2.97;;;2.15;;
76964;SDS011;65903;51.452;7.198;2023-07-28T03:46:04;2.83;;;2.10;;
76964;SDS011;65903;51.452;7.198;2023-07-28T03:47:05;4.30;;;2.05;;
76964;SDS011;65903;51.452;7.198;2023-07-28T03:48:06;2.88;;;2.20;;
76964;SDS011;65903;51.452;7.198;2023-07-28T03:49:07;4.07;;;2.20;;
76964;SDS011;65903;51.452;7.198;2023-07-28T03:50:08;3.05;;;2.10;;
76964;SDS011;65903;51.452;7.198;2023-07-28T03:51:08;3.13;;;2.15;;
76964;SDS011;65903;51.452;7.198;2023-07-28T03:52:09;3.67;;;1.85;;
76964;SDS011;65903;51.452;7.198;2023-07-28T03:53:09;2.78;;;1.98;;
76964;SDS011;65903;51.452;7.198;2023-07-28T03:54:10;3.38;;;2.28;;
76964;SDS011;65903;51.452;7.198;2023-07-28T03:55:11;2.88;;;2.15;;
76964;SDS011;65903;51.452;7.198;2023-07-28T03:56:12;3.03;;;2.10;;
76964;SDS011;65903;51.452;7.198;2023-07-28T03:57:13;3.30;;;2.10;;
76964;SDS011;65903;51.452;7.198;2023-07-28T03:58:13;3.05;;;1.90;;
76964;SDS011;65903;51.452;7.198;2023-07-28T03:59:14;2.45;;;1.80;;
76964;SDS011;65903;51.452;7.198;2023-07-28T04:00:15;3.60;;;1.90;;
76964;SDS011;65903;51.452;7.198;2023-07-28T04:01:16;3.17;;;2.10;;
76964;SDS011;65903;51.452;7.198;2023-07-28T04:02:17;2.72;;;1.92;;
76964;SDS011;65903;51.452;7.198;2023-07-28T04:03:18;4.07;;;2.00;;
76964;SDS011;65903;51.452;7.198;2023-07-28T04:04:19;3.33;;;2.30;;
76964;SDS011;65903;51.452;7.198;2023-07-28T04:05:20;5.38;;;2.40;;
76964;SDS011;65903;51.452;7.198;2023-07-28T04:06:38;3.28;;;1.83;;
76964;SDS011;65903;51.452;7.198;2023-07-28T04:07:41;2.92;;;1.90;;
76964;SDS011;65903;51.452;7.198;2023-07-28T04:08:42;2.97;;;2.05;;
76964;SDS011;65903;51.452;7.198;2023-07-28T04:09:43;2.53;;;1.80;;
76964;SDS011;65903;51.452;7.198;2023-07-28T04:10:44;3.10;;;2.10;;
76964;SDS011;65903;51.452;7.198;2023-07-28T04:11:44;3.63;;;1.83;;
76964;SDS011;65903;51.452;7.198;2023-07-28T04:12:46;3.80;;;2.20;;
76964;SDS011;65903;51.452;7.198;2023-07-28T04:13:46;3.65;;;2.30;;
76964;SDS011;65903;51.452;7.198;2023-07-28T04:14:47;4.30;;;2.20;;
76964;SDS011;65903;51.452;7.198;2023-07-28T04:15:48;3.90;;;2.20;;
76964;SDS011;65903;51.452;7.198;2023-07-28T04:16:51;3.97;;;2.13;;
76964;SDS011;65903;51.452;7.198;2023-07-28T04:17:52;3.58;;;2.38;;
76964;SDS011;65903;51.452;7.198;2023-07-28T04:18:56;3.50;;;2.30;;
76964;SDS011;65903;51.452;7.198;2023-07-28T04:19:57;3.47;;;2.60;;
76964;SDS011;65903;51.452;7.198;2023-07-28T04:20:58;3.00;;;2.17;;
76964;SDS011;65903;51.452;7.198;2023-07-28T04:21:59;3.40;;;2.30;;
76964;SDS011;65903;51.452;7.198;2023-07-28T04:23:00;5.00;;;2.60;;
76964;SDS011;65903;51.452;7.198;2023-07-28T04:24:01;2.90;;;2.20;;
76964;SDS011;65903;51.452;7.198;2023-07-28T04:25:02;2.85;;;2.05;;
76964;SDS011;65903;51.452;7.198;2023-07-28T04:26:03;3.30;;;2.30;;
76964;SDS011;65903;51.452;7.198;2023-07-28T04:27:03;2.92;;;1.90;;
76964;SDS011;65903;51.452;7.198;2023-07-28T04:28:04;2.78;;;1.90;;
76964;SDS011;65903;51.452;7.198;2023-07-28T04:29:04;3.38;;;2.08;;
76964;SDS011;65903;51.452;7.198;2023-07-28T04:30:06;2.88;;;2.00;;
76964;SDS011;65903;51.452;7.198;2023-07-28T04:31:07;2.83;;;2.13;;
76964;SDS011;65903;51.452;7.198;2023-07-28T04:32:08;2.40;;;1.85;;
76964;SDS011;65903;51.452;7.198;2023-07-28T04:33:08;3.67;;;2.55;;
76964;SDS011;65903;51.452;7.198;2023-07-28T04:34:09;3.17;;;2.13;;
76964;SDS011;65903;51.452;7.198;2023-07-28T04:35:10;3.45;;;2.53;;
76964;SDS011;65903;51.452;7.198;2023-07-28T04:36:10;3.67;;;2.40;;
76964;SDS011;65903;51.452;7.198;2023-07-28T04:37:11;3.15;;;2.15;;
76964;SDS011;65903;51.452;7.198;2023-07-28T04:38:11;3.22;;;2.25;;
76964;SDS011;65903;51.452;7.198;2023-07-28T04:39:12;3.38;;;2.17;;
76964;SDS011;65903;51.452;7.198;2023-07-28T04:40:13;3.40;;;2.40;;
76964;SDS011;65903;51.452;7.198;2023-07-28T04:41:14;2.90;;;1.90;;
76964;SDS011;65903;51.452;7.198;2023-07-28T04:42:14;2.67;;;1.98;;
76964;SDS011;65903;51.452;7.198;2023-07-28T04:43:15;2.92;;;2.25;;
76964;SDS011;65903;51.452;7.198;2023-07-28T04:44:16;3.53;;;2.13;;
76964;SDS011;65903;51.452;7.198;2023-07-28T04:45:18;2.95;;;2.35;;
76964;SDS011;65903;51.452;7.198;2023-07-28T04:46:19;2.83;;;2.00;;
76964;SDS011;65903;51.452;7.198;2023-07-28T04:47:20;2.63;;;1.90;;
76964;SDS011;65903;51.452;7.198;2023-07-28T04:48:22;2.80;;;2.20;;
76964;SDS011;65903;51.452;7.198;2023-07-28T04:49:22;2.75;;;2.00;;
76964;SDS011;65903;51.452;7.198;2023-07-28T04:50:23;3.83;;;2.00;;
76964;SDS011;65903;51.452;7.198;2023-07-28T04:51:24;3.05;;;2.08;;
76964;SDS011;65903;51.452;7.198;2023-07-28T04:52:24;3.67;;;2.00;;
76964;SDS011;65903;51.452;7.198;2023-07-28T04:53:25;2.83;;;1.98;;
76964;SDS011;65903;51.452;7.198;2023-07-28T04:54:25;2.83;;;1.90;;
76964;SDS011;65903;51.452;7.198;2023-07-28T04:55:26;2.65;;;1.95;;
76964;SDS011;65903;51.452;7.198;2023-07-28T04:56:27;2.80;;;1.80;;
76964;SDS011;65903;51.452;7.198;2023-07-28T04:57:29;2.60;;;1.80;;
76964;SDS011;65903;51.452;7.198;2023-07-28T04:58:29;2.85;;;2.15;;
76964;SDS011;65903;51.452;7.198;2023-07-28T04:59:30;3.20;;;1.95;;
76964;SDS011;65903;51.452;7.198;2023-07-28T05:00:31;3.28;;;1.92;;
76964;SDS011;65903;51.452;7.198;2023-07-28T05:01:32;3.85;;;2.17;;
76964;SDS011;65903;51.452;7.198;2023-07-28T05:02:33;3.03;;;1.88;;
76964;SDS011;65903;51.452;7.198;2023-07-28T05:03:37;3.45;;;2.00;;
76964;SDS011;65903;51.452;7.198;2023-07-28T05:04:38;2.85;;;1.90;;
76964;SDS011;65903;51.452;7.198;2023-07-28T05:05:42;2.17;;;1.70;;
76964;SDS011;65903;51.452;7.198;2023-07-28T05:06:44;2.60;;;1.90;;
76964;SDS011;65903;51.452;7.198;2023-07-28T05:07:45;2.67;;;1.77;;
76964;SDS011;65903;51.452;7.198;2023-07-28T05:08:45;2.58;;;1.70;;
76964;SDS011;65903;51.452;7.198;2023-07-28T05:09:46;2.45;;;1.70;;
76964;SDS011;65903;51.452;7.198;2023-07-28T05:10:46;2.20;;;1.60;;
76964;SDS011;65903;51.452;7.198;2023-07-28T05:11:47;2.40;;;1.60;;
76964;SDS011;65903;51.452;7.198;2023-07-28T05:12:47;2.35;;;1.70;;
76964;SDS011;65903;51.452;7.198;2023-07-28T05:13:48;2.35;;;1.70;;
76964;SDS011;65903;51.452;7.198;2023-07-28T05:14:49;2.50;;;1.75;;
76964;SDS011;65903;51.452;7.198;2023-07-28T05:15:50;2.70;;;1.70;;
76964;SDS011;65903;51.452;7.198;2023-07-28T05:16:52;2.85;;;2.13;;
76964;SDS011;65903;51.452;7.198;2023-07-28T05:17:53;2.60;;;1.92;;
76964;SDS011;65903;51.452;7.198;2023-07-28T05:18:54;2.40;;;1.80;;
76964;SDS011;65903;51.452;7.198;2023-07-28T05:19:55;2.53;;;1.75;;
76964;SDS011;65903;51.452;7.198;2023-07-28T05:20:55;2.88;;;1.77;;
76964;SDS011;65903;51.452;7.198;2023-07-28T05:21:56;3.15;;;1.70;;
76964;SDS011;65903;51.452;7.198;2023-07-28T05:22:57;2.72;;;2.00;;
76964;SDS011;65903;51.452;7.198;2023-07-28T05:23:58;3.17;;;2.00;;
76964;SDS011;65903;51.452;7.198;2023-07-28T05:24:59;4.25;;;2.20;;
76964;SDS011;65903;51.452;7.198;2023-07-28T05:26:00;2.88;;;1.90;;
76964;SDS011;65903;51.452;7.198;2023-07-28T05:27:01;3.25;;;2.00;;
76964;SDS011;65903;51.452;7.198;2023-07-28T05:28:02;3.53;;;2.33;;
76964;SDS011;65903;51.452;7.198;2023-07-28T05:29:02;3.00;;;2.00;;
76964;SDS011;65903;51.452;7.198;2023-07-28T05:30:03;2.67;;;1.90;;
76964;SDS011;65903;51.452;7.198;2023-07-28T05:31:05;2.85;;;1.90;;
76964;SDS011;65903;51.452;7.198;2023-07-28T05:32:06;2.28;;;1.77;;
76964;SDS011;65903;51.452;7.198;2023-07-28T05:33:07;2.47;;;1.77;;
76964;SDS011;65903;51.452;7.198;2023-07-28T05:34:08;3.35;;;2.30;;
76964;SDS011;65903;51.452;7.198;2023-07-28T05:35:09;2.60;;;1.92;;
76964;SDS011;65903;51.452;7.198;2023-07-28T05:36:10;3.40;;;2.13;;
76964;SDS011;65903;51.452;7.198;2023-07-28T05:37:11;2.78;;;2.15;;
76964;SDS011;65903;51.452;7.198;2023-07-28T05:38:12;2.85;;;2.22;;
76964;SDS011;65903;51.452;7.198;2023-07-28T05:39:13;3.53;;;2.40;;
76964;SDS011;65903;51.452;7.198;2023-07-28T05:40:14;4.43;;;2.20;;
76964;SDS011;65903;51.452;7.198;2023-07-28T05:41:14;3.63;;;2.35;;
76964;SDS011;65903;51.452;7.198;2023-07-28T05:42:15;3.53;;;2.40;;
76964;SDS011;65903;51.452;7.198;2023-07-28T05:43:17;3.20;;;2.33;;
76964;SDS011;65903;51.452;7.198;2023-07-28T05:44:17;2.60;;;1.90;;
76964;SDS011;65903;51.452;7.198;2023-07-28T05:45:18;3.53;;;2.55;;
76964;SDS011;65903;51.452;7.198;2023-07-28T05:46:18;3.17;;;2.20;;
76964;SDS011;65903;51.452;7.198;2023-07-28T05:47:19;3.40;;;2.40;;
76964;SDS011;65903;51.452;7.198;2023-07-28T05:48:20;3.33;;;2.13;;
76964;SDS011;65903;51.452;7.198;2023-07-28T05:49:21;3.63;;;2.53;;
76964;SDS011;65903;51.452;7.198;2023-07-28T05:50:22;3.95;;;2.30;;
76964;SDS011;65903;51.452;7.198;2023-07-28T05:51:23;4.00;;;2.30;;
76964;SDS011;65903;51.452;7.198;2023-07-28T05:52:24;3.00;;;2.20;;
76964;SDS011;65903;51.452;7.198;2023-07-28T05:53:25;2.88;;;1.90;;
76964;SDS011;65903;51.452;7.198;2023-07-28T05:54:25;3.95;;;2.17;;
76964;SDS011;65903;51.452;7.198;2023-07-28T05:55:26;3.35;;;2.33;;
76964;SDS011;65903;51.452;7.198;2023-07-28T05:56:26;3.65;;;2.47;;
76964;SDS011;65903;51.452;7.198;2023-07-28T05:57:27;3.45;;;2.22;;
76964;SDS011;65903;51.452;7.198;2023-07-28T05:58:28;3.55;;;2.60;;
76964;SDS011;65903;51.452;7.198;2023-07-28T05:59:30;4.05;;;2.50;;
76964;SDS011;65903;51.452;7.198;2023-07-28T06:00:30;3.60;;;2.33;;
76964;SDS011;65903;51.452;7.198;2023-07-28T06:01:32;3.38;;;2.38;;
76964;SDS011;65903;51.452;7.198;2023-07-28T06:02:33;4.07;;;2.33;;
76964;SDS011;65903;51.452;7.198;2023-07-28T06:03:34;4.90;;;2.70;;
76964;SDS011;65903;51.452;7.198;2023-07-28T06:04:35;4.00;;;2.60;;
76964;SDS011;65903;51.452;7.198;2023-07-28T06:05:37;5.88;;;2.80;;
76964;SDS011;65903;51.452;7.198;2023-07-28T06:06:40;5.65;;;3.00;;
76964;SDS011;65903;51.452;7.198;2023-07-28T06:07:40;6.25;;;3.15;;
76964;SDS011;65903;51.452;7.198;2023-07-28T06:08:41;4.50;;;2.80;;
76964;SDS011;65903;51.452;7.198;2023-07-28T06:09:43;6.05;;;3.30;;
76964;SDS011;65903;51.452;7.198;2023-07-28T06:10:45;5.65;;;3.30;;
76964;SDS011;65903;51.452;7.198;2023-07-28T06:11:46;6.07;;;3.15;;
76964;SDS011;65903;51.452;7.198;2023-07-28T06:12:47;5.00;;;3.00;;
76964;SDS011;65903;51.452;7.198;2023-07-28T06:13:48;5.35;;;3.42;;
76964;SDS011;65903;51.452;7.198;2023-07-28T06:14:48;5.30;;;3.35;;